Time;durP1;ratioP1;P1;durP2;ratioP2;P2;SDS_P1;SDS_P2;PMS_P1;PMS_P2;Temp;Humidity;BMP_temperature;BMP_pressure;BME280_temperature;BME280_humidity;BME280_pressure;Samples;Min_cycle;Max_cycle;Signal;HPM_P1;HPM_P2
2021/05/22 00:01:22;;;;;;;5.28;3.95;;;;;;;;;;5097113;28;20370;-72
2021/05/22 00:03:48;;;;;;;4.03;3.40;;;;;;;;;;5097458;28;20343;-72
2021/05/22 00:06:14;;;;;;;4.22;3.28;;;;;;;;;;5095811;28;20024;-72
2021/05/22 00:08:39;;;;;;;4.65;3.45;;;;;;;;;;5097315;28;20035;-72
2021/05/22 00:11:05;;;;;;;4.43;3.80;;;;;;;;;;5097259;28;20027;-72
2021/05/22 00:13:30;;;;;;;3.60;3.30;;;;;;;;;;5097405;28;20035;-73
2021/05/22 00:15:56;;;;;;;4.57;3.58;;;;;;;;;;5097185;28;20103;-73
2021/05/22 00:18:21;;;;;;;4.50;3.78;;;;;;;;;;5096835;28;20062;-73
2021/05/22 00:20:47;;;;;;;4.38;3.42;;;;;;;;;;5096707;28;20020;-73
2021/05/22 00:23:14;;;;;;;3.80;3.47;;;;;;;;;;5096739;28;20028;-70
2021/05/22 00:25:40;;;;;;;5.13;3.67;;;;;;;;;;5096859;28;20016;-71
2021/05/22 00:28:06;;;;;;;4.05;3.35;;;;;;;;;;5096886;28;20099;-72
2021/05/22 00:30:31;;;;;;;3.53;3.22;;;;;;;;;;5095441;28;20116;-71
2021/05/22 00:32:56;;;;;;;4.35;3.80;;;;;;;;;;5096705;28;20040;-71
2021/05/22 00:35:23;;;;;;;3.95;3.58;;;;;;;;;;5096338;28;20052;-73
2021/05/22 00:37:48;;;;;;;4.15;3.60;;;;;;;;;;5095567;28;20028;-72
2021/05/22 00:40:14;;;;;;;5.22;3.58;;;;;;;;;;5094748;28;20032;-72
2021/05/22 00:42:41;;;;;;;3.60;3.13;;;;;;;;;;5097024;28;20028;-71
2021/05/22 00:45:08;;;;;;;9.82;5.85;;;;;;;;;;5095237;28;20118;-71
2021/05/22 00:47:34;;;;;;;8.50;6.38;;;;;;;;;;5096237;28;20101;-73
2021/05/22 00:50:00;;;;;;;5.35;4.05;;;;;;;;;;5096061;28;20396;-73
2021/05/22 00:52:25;;;;;;;3.67;3.22;;;;;;;;;;5096108;28;20104;-72
2021/05/22 00:54:52;;;;;;;4.20;2.78;;;;;;;;;;5096425;28;20028;-72
2021/05/22 00:57:18;;;;;;;3.13;2.88;;;;;;;;;;5096295;28;20051;-71
2021/05/22 00:59:45;;;;;;;5.10;3.03;;;;;;;;;;5095980;28;20506;-72
2021/05/22 01:02:20;;;;;;;3.15;2.95;;;;;;;;;;5096269;28;20467;-72
2021/05/22 01:04:46;;;;;;;3.42;3.13;;;;;;;;;;5095785;28;20046;-71
2021/05/22 01:07:12;;;;;;;3.70;2.90;;;;;;;;;;5096154;28;20031;-71
2021/05/22 01:09:39;;;;;;;3.65;2.88;;;;;;;;;;5096055;28;20020;-71
2021/05/22 01:12:06;;;;;;;3.35;3.08;;;;;;;;;;5094902;28;20032;-72
2021/05/22 01:14:36;;;;;;;3.22;2.92;;;;;;;;;;5096091;28;20040;-72
2021/05/22 01:17:02;;;;;;;3.92;3.63;;;;;;;;;;5095924;28;20028;-72
2021/05/22 01:19:34;;;;;;;3.67;3.38;;;;;;;;;;5095473;28;20363;-72
2021/05/22 01:21:59;;;;;;;3.70;3.30;;;;;;;;;;5095621;28;20542;-72
2021/05/22 01:24:26;;;;;;;3.88;3.35;;;;;;;;;;5095741;28;20111;-72
2021/05/22 01:26:52;;;;;;;3.40;3.20;;;;;;;;;;5095466;28;20101;-73
2021/05/22 01:29:18;;;;;;;5.20;3.20;;;;;;;;;;5095836;28;20020;-73
2021/05/22 01:31:44;;;;;;;4.60;3.15;;;;;;;;;;5095637;28;20115;-71
2021/05/22 01:34:09;;;;;;;3.83;3.08;;;;;;;;;;5094914;28;20103;-72
2021/05/22 01:36:34;;;;;;;3.83;3.15;;;;;;;;;;5094264;28;20047;-71
2021/05/22 01:39:01;;;;;;;3.17;2.88;;;;;;;;;;5095641;28;20032;-71
2021/05/22 01:41:27;;;;;;;3.25;2.95;;;;;;;;;;5095484;28;20024;-72
2021/05/22 01:43:56;;;;;;;3.30;3.00;;;;;;;;;;5095532;28;20062;-71
2021/05/22 01:46:23;;;;;;;3.60;3.30;;;;;;;;;;5094020;28;20207;-71
2021/05/22 01:48:49;;;;;;;4.07;3.58;;;;;;;;;;5095074;28;20024;-71
2021/05/22 01:51:16;;;;;;;3.38;3.10;;;;;;;;;;5095231;28;20038;-71
2021/05/22 01:54:00;;;;;;;4.45;3.35;;;;;;;;;;5095384;28;20107;-71
2021/05/22 01:56:26;;;;;;;3.38;3.10;;;;;;;;;;5095080;28;20444;-71
2021/05/22 01:58:51;;;;;;;3.25;3.05;;;;;;;;;;5094794;28;20073;-71
2021/05/22 02:01:17;;;;;;;3.70;3.40;;;;;;;;;;5092885;28;20111;-71
2021/05/22 02:03:46;;;;;;;4.82;3.03;;;;;;;;;;5094925;28;20469;-71
2021/05/22 02:06:18;;;;;;;3.47;3.05;;;;;;;;;;5094694;28;20032;-71
2021/05/22 02:08:44;;;;;;;3.40;3.10;;;;;;;;;;5094893;28;20395;-71
2021/05/22 02:11:10;;;;;;;3.45;3.15;;;;;;;;;;5094761;28;20020;-71
2021/05/22 02:13:35;;;;;;;3.85;3.00;;;;;;;;;;5094945;28;20092;-71
2021/05/22 02:16:01;;;;;;;3.97;3.58;;;;;;;;;;5094917;28;20169;-71
2021/05/22 02:18:28;;;;;;;3.88;3.35;;;;;;;;;;5094728;28;20488;-71
2021/05/22 02:20:55;;;;;;;3.30;3.00;;;;;;;;;;5094451;28;20032;-70
2021/05/22 02:23:21;;;;;;;3.70;3.35;;;;;;;;;;5094581;28;20028;-71
2021/05/22 02:25:47;;;;;;;5.03;3.25;;;;;;;;;;5094711;28;20022;-72
2021/05/22 02:28:14;;;;;;;3.90;3.30;;;;;;;;;;5094298;28;20111;-71
2021/05/22 02:30:41;;;;;;;3.17;2.88;;;;;;;;;;5094549;28;20055;-71
2021/05/22 02:33:09;;;;;;;4.38;2.95;;;;;;;;;;5094927;28;20035;-71
2021/05/22 02:35:36;;;;;;;3.33;3.03;;;;;;;;;;5093526;28;20138;-71
2021/05/22 02:38:03;;;;;;;3.53;3.33;;;;;;;;;;5094438;28;20039;-71
2021/05/22 02:40:29;;;;;;;4.75;3.05;;;;;;;;;;5094221;28;20024;-69
2021/05/22 02:43:01;;;;;;;4.90;2.70;;;;;;;;;;5094408;28;20127;-69
2021/05/22 02:45:27;;;;;;;3.35;3.05;;;;;;;;;;5094128;28;20466;-69
2021/05/22 02:47:54;;;;;;;3.30;3.00;;;;;;;;;;5094131;28;20012;-70
2021/05/22 02:50:32;;;;;;;4.50;3.00;;;;;;;;;;5093981;28;20462;-72
2021/05/22 02:53:01;;;;;;;2.88;2.67;;;;;;;;;;5092663;28;20043;-72
2021/05/22 02:55:36;;;;;;;3.42;3.08;;;;;;;;;;5075674;28;20024;-72
2021/05/22 02:58:09;;;;;;;4.65;3.30;;;;;;;;;;5092692;28;20508;-71
2021/05/22 03:00:40;;;;;;;4.10;3.38;;;;;;;;;;5092497;28;20428;-72
2021/05/22 03:03:10;;;;;;;3.20;3.00;;;;;;;;;;5092358;28;20509;-73
2021/05/22 03:05:41;;;;;;;3.45;3.15;;;;;;;;;;5092213;28;20020;-72
2021/05/22 03:08:12;;;;;;;3.30;3.00;;;;;;;;;;5092301;28;20028;-70
2021/05/22 03:10:39;;;;;;;4.93;3.30;;;;;;;;;;5092317;28;20028;-70
2021/05/22 03:13:09;;;;;;;3.20;2.92;;;;;;;;;;5075404;28;20020;-71
2021/05/22 03:15:35;;;;;;;3.22;2.90;;;;;;;;;;5092418;28;20028;-72
2021/05/22 03:18:05;;;;;;;3.42;2.65;;;;;;;;;;5093587;28;20102;-72
2021/05/22 03:20:40;;;;;;;4.50;3.10;;;;;;;;;;5091918;28;20067;-72
2021/05/22 03:23:11;;;;;;;;;;;;;;;;;;5093875;28;20020;-73
2021/05/22 03:25:42;;;;;;;4.63;3.00;;;;;;;;;;5093367;28;19956;-73
2021/05/22 03:28:09;;;;;;;3.20;3.00;;;;;;;;;;5093430;28;20039;-72
2021/05/22 03:30:40;;;;;;;3.75;3.45;;;;;;;;;;5092180;28;20028;-72
2021/05/22 03:33:06;;;;;;;3.60;3.22;;;;;;;;;;5092347;28;20389;-71
2021/05/22 03:35:31;;;;;;;3.42;3.13;;;;;;;;;;5091545;28;20040;-71
2021/05/22 03:37:57;;;;;;;3.85;3.10;;;;;;;;;;5093613;28;20057;-71
2021/05/22 03:40:22;;;;;;;3.80;3.50;;;;;;;;;;5093524;28;20028;-72
2021/05/22 03:42:48;;;;;;;3.05;2.85;;;;;;;;;;5092308;28;20414;-72
2021/05/22 03:45:13;;;;;;;3.15;2.85;;;;;;;;;;5093419;28;20025;-69
2021/05/22 03:47:39;;;;;;;2.90;2.70;;;;;;;;;;5093582;28;20016;-69
2021/05/22 03:50:05;;;;;;;3.83;3.40;;;;;;;;;;5093655;28;20032;-68
2021/05/22 03:52:31;;;;;;;4.70;3.10;;;;;;;;;;5092027;28;20078;-69
2021/05/22 03:54:57;;;;;;;4.28;2.88;;;;;;;;;;5093053;28;20517;-68
2021/05/22 03:57:23;;;;;;;3.78;3.00;;;;;;;;;;5091787;28;20107;-69
2021/05/22 03:59:48;;;;;;;3.75;3.20;;;;;;;;;;5093140;28;20084;-70
2021/05/22 04:02:14;;;;;;;4.22;2.70;;;;;;;;;;5093160;28;20016;-71
2021/05/22 04:04:40;;;;;;;4.70;2.78;;;;;;;;;;5093313;28;20035;-70
2021/05/22 04:07:05;;;;;;;3.45;3.15;;;;;;;;;;5093233;28;20020;-70
2021/05/22 04:09:31;;;;;;;4.63;2.67;;;;;;;;;;5093045;28;20024;-70
2021/05/22 04:11:56;;;;;;;4.88;2.90;;;;;;;;;;5092859;28;20024;-70
2021/05/22 04:14:21;;;;;;;5.22;2.90;;;;;;;;;;5093148;28;20028;-70
2021/05/22 04:16:47;;;;;;;3.17;2.88;;;;;;;;;;5093011;28;20107;-70
2021/05/22 04:19:12;;;;;;;3.28;2.95;;;;;;;;;;5093260;28;20044;-69
2021/05/22 04:21:38;;;;;;;3.20;2.80;;;;;;;;;;5092946;28;20035;-69
2021/05/22 04:24:03;;;;;;;2.83;2.63;;;;;;;;;;5093704;28;20024;-70
2021/05/22 04:26:29;;;;;;;2.78;2.58;;;;;;;;;;5096857;28;20047;-69
2021/05/22 04:28:54;;;;;;;2.83;2.63;;;;;;;;;;5096704;28;20016;-69
2021/05/22 04:31:20;;;;;;;3.05;2.78;;;;;;;;;;5097087;28;20020;-69
2021/05/22 04:33:45;;;;;;;3.13;2.75;;;;;;;;;;5097058;28;20059;-69
2021/05/22 04:36:11;;;;;;;4.13;2.35;;;;;;;;;;5096548;28;20048;-69
2021/05/22 04:38:36;;;;;;;3.22;2.55;;;;;;;;;;5096494;28;20024;-71
2021/05/22 04:41:02;;;;;;;3.55;2.53;;;;;;;;;;5096318;28;20044;-71
2021/05/22 04:43:27;;;;;;;3.13;2.40;;;;;;;;;;5096341;28;20378;-71
2021/05/22 04:45:53;;;;;;;2.80;2.60;;;;;;;;;;5096480;28;20023;-71
2021/05/22 04:48:18;;;;;;;2.65;2.13;;;;;;;;;;5096250;28;20024;-71
2021/05/22 04:50:45;;;;;;;2.67;2.47;;;;;;;;;;5096299;28;20040;-70
2021/05/22 04:53:10;;;;;;;2.22;2.08;;;;;;;;;;5096227;28;20496;-69
2021/05/22 04:55:37;;;;;;;3.45;2.70;;;;;;;;;;5096340;28;20024;-68
2021/05/22 04:58:02;;;;;;;2.80;2.60;;;;;;;;;;5096345;28;20378;-69
2021/05/22 05:00:28;;;;;;;2.40;2.20;;;;;;;;;;5095803;28;20031;-71
2021/05/22 05:02:55;;;;;;;2.75;2.38;;;;;;;;;;5096072;28;20024;-70
2021/05/22 05:05:22;;;;;;;2.55;1.90;;;;;;;;;;5096323;28;20017;-71
2021/05/22 05:07:48;;;;;;;2.20;1.98;;;;;;;;;;5096132;28;20432;-70
2021/05/22 05:10:15;;;;;;;2.35;2.25;;;;;;;;;;5095223;28;20020;-71
2021/05/22 05:12:40;;;;;;;2.67;2.47;;;;;;;;;;5095711;28;20082;-71
2021/05/22 05:15:06;;;;;;;2.53;2.33;;;;;;;;;;5096095;28;20015;-71
2021/05/22 05:17:33;;;;;;;2.42;2.08;;;;;;;;;;5095729;28;20028;-70
2021/05/22 05:19:59;;;;;;;2.67;2.20;;;;;;;;;;5095629;28;20078;-71
2021/05/22 05:22:26;;;;;;;5.97;2.40;;;;;;;;;;5095290;28;20024;-70
2021/05/22 05:24:52;;;;;;;3.42;2.50;;;;;;;;;;5095176;28;20013;-71
2021/05/22 05:27:17;;;;;;;6.35;2.38;;;;;;;;;;5095432;28;20031;-71
2021/05/22 05:29:43;;;;;;;2.55;2.28;;;;;;;;;;5093897;28;20008;-71
2021/05/22 05:32:09;;;;;;;2.35;2.15;;;;;;;;;;5094150;28;20023;-71
2021/05/22 05:34:35;;;;;;;3.78;2.30;;;;;;;;;;5094472;28;20023;-70
2021/05/22 05:37:01;;;;;;;2.53;2.33;;;;;;;;;;5093721;28;20039;-71
2021/05/22 05:39:27;;;;;;;4.10;2.17;;;;;;;;;;5094930;28;20032;-71
2021/05/22 05:41:53;;;;;;;3.30;2.22;;;;;;;;;;5095079;28;20020;-71
2021/05/22 05:44:19;;;;;;;5.18;2.40;;;;;;;;;;5094931;28;20020;-71
2021/05/22 05:46:44;;;;;;;2.50;2.30;;;;;;;;;;5095202;28;20024;-71
2021/05/22 05:49:13;;;;;;;2.50;2.30;;;;;;;;;;5095083;28;20404;-71
2021/05/22 05:51:39;;;;;;;2.38;2.17;;;;;;;;;;5094932;28;20024;-71
2021/05/22 05:54:05;;;;;;;2.13;2.00;;;;;;;;;;5093396;28;20034;-71
2021/05/22 05:56:30;;;;;;;3.67;2.28;;;;;;;;;;5094433;28;20103;-70
2021/05/22 05:58:56;;;;;;;2.40;2.20;;;;;;;;;;5094669;28;20016;-70
2021/05/22 06:01:21;;;;;;;2.38;2.17;;;;;;;;;;5094611;28;20036;-70
2021/05/22 06:03:48;;;;;;;2.78;2.40;;;;;;;;;;5094082;28;20108;-71
2021/05/22 06:06:13;;;;;;;2.60;2.40;;;;;;;;;;5094455;28;20030;-70
2021/05/22 06:08:39;;;;;;;3.08;2.85;;;;;;;;;;5094377;28;20087;-70
2021/05/22 06:11:06;;;;;;;2.97;2.60;;;;;;;;;;5094856;28;20036;-72
2021/05/22 06:13:34;;;;;;;1.85;1.75;;;;;;;;;;5094886;28;20389;-71
2021/05/22 06:18:27;;;;;;;2.85;1.75;;;;;;;;;;5094407;28;20457;-70
2021/05/22 06:20:54;;;;;;;2.90;2.00;;;;;;;;;;5094340;28;20043;-71
2021/05/22 06:23:19;;;;;;;1.75;1.65;;;;;;;;;;5093393;28;20012;-73
2021/05/22 06:25:45;;;;;;;4.10;1.77;;;;;;;;;;5087343;28;20523;-71
2021/05/22 06:28:10;;;;;;;2.80;1.50;;;;;;;;;;5091632;28;20420;-70
2021/05/22 06:30:36;;;;;;;2.20;1.70;;;;;;;;;;5091564;28;20032;-70
2021/05/22 06:33:01;;;;;;;2.20;2.00;;;;;;;;;;5091105;28;20708;-70
2021/05/22 06:35:27;;;;;;;3.60;2.60;;;;;;;;;;5090936;28;20079;-70
2021/05/22 06:37:52;;;;;;;3.88;2.50;;;;;;;;;;5091462;28;20078;-70
2021/05/22 06:40:18;;;;;;;2.20;2.00;;;;;;;;;;5089508;28;20008;-71
2021/05/22 06:42:43;;;;;;;2.30;2.03;;;;;;;;;;5091010;28;20028;-70
2021/05/22 06:45:14;;;;;;;2.20;2.00;;;;;;;;;;5090821;28;20103;-70
2021/05/22 06:47:39;;;;;;;3.47;2.95;;;;;;;;;;5089594;28;20020;-70
2021/05/22 06:50:05;;;;;;;5.68;3.40;;;;;;;;;;5091073;28;20074;-70
2021/05/22 06:52:31;;;;;;;3.53;3.22;;;;;;;;;;5091092;28;20107;-70
2021/05/22 06:54:56;;;;;;;3.35;2.70;;;;;;;;;;5090961;28;20024;-71
2021/05/22 06:57:22;;;;;;;4.10;2.65;;;;;;;;;;5091083;28;20039;-70
2021/05/22 06:59:47;;;;;;;2.72;2.25;;;;;;;;;;5089553;28;20035;-70
2021/05/22 07:02:13;;;;;;;3.55;2.03;;;;;;;;;;5090715;28;20389;-71
2021/05/22 07:04:38;;;;;;;1.77;1.33;;;;;;;;;;5090652;28;20019;-70
2021/05/22 07:07:05;;;;;;;4.43;2.97;;;;;;;;;;5090928;28;20073;-71
2021/05/22 07:09:33;;;;;;;1.95;1.10;;;;;;;;;;5089330;28;20424;-70
2021/05/22 07:11:58;;;;;;;14.48;5.35;;;;;;;;;;5090746;28;20040;-71
2021/05/22 07:14:25;;;;;;;1.85;1.75;;;;;;;;;;5090484;28;20034;-70
2021/05/22 07:16:51;;;;;;;1.90;1.70;;;;;;;;;;5088818;28;20478;-70
2021/05/22 07:19:17;;;;;;;1.92;1.77;;;;;;;;;;5090022;28;20024;-70
2021/05/22 07:21:42;;;;;;;2.70;1.65;;;;;;;;;;5089926;28;20080;-70
2021/05/22 07:24:08;;;;;;;3.05;1.63;;;;;;;;;;5089612;28;20012;-70
2021/05/22 07:26:33;;;;;;;4.00;2.05;;;;;;;;;;5090021;28;20375;-70
2021/05/22 07:29:00;;;;;;;3.10;1.95;;;;;;;;;;5089388;28;20027;-70
2021/05/22 07:31:25;;;;;;;1.02;0.93;;;;;;;;;;5090273;28;20031;-70
2021/05/22 07:33:51;;;;;;;2.30;1.65;;;;;;;;;;5090425;28;20021;-70
2021/05/22 07:36:17;;;;;;;2.95;2.25;;;;;;;;;;5090103;28;20046;-70
2021/05/22 07:38:43;;;;;;;1.75;1.65;;;;;;;;;;5090987;28;20028;-70
2021/05/22 07:41:09;;;;;;;3.28;2.00;;;;;;;;;;5089112;28;20037;-71
2021/05/22 07:43:35;;;;;;;2.65;1.88;;;;;;;;;;5090281;28;20035;-70
2021/05/22 07:46:01;;;;;;;2.67;2.00;;;;;;;;;;5090742;28;20024;-70
2021/05/22 07:48:27;;;;;;;2.58;1.90;;;;;;;;;;5090451;28;20348;-71
2021/05/22 07:50:53;;;;;;;2.10;1.92;;;;;;;;;;5090435;28;20024;-70
2021/05/22 07:53:19;;;;;;;3.03;2.50;;;;;;;;;;5090097;28;20440;-70
2021/05/22 07:55:45;;;;;;;1.92;1.77;;;;;;;;;;5090542;28;20397;-70
2021/05/22 07:58:15;;;;;;;3.47;1.50;;;;;;;;;;5090386;28;20049;-70
2021/05/22 08:00:41;;;;;;;1.85;1.75;;;;;;;;;;5092666;28;20489;-70
2021/05/22 08:03:08;;;;;;;2.05;1.70;;;;;;;;;;5093060;28;20016;-70
2021/05/22 08:05:35;;;;;;;2.78;1.98;;;;;;;;;;5092807;28;20466;-70
2021/05/22 08:08:00;;;;;;;1.60;1.52;;;;;;;;;;5092146;28;20835;-70
2021/05/22 08:10:25;;;;;;;2.33;1.42;;;;;;;;;;5091437;28;20032;-70
2021/05/22 08:12:52;;;;;;;1.95;1.83;;;;;;;;;;5091587;28;20027;-70
2021/05/22 08:15:17;;;;;;;2.15;1.80;;;;;;;;;;5092240;28;20031;-70
2021/05/22 08:17:43;;;;;;;3.10;1.92;;;;;;;;;;5091849;28;20020;-70
2021/05/22 08:20:11;;;;;;;2.63;2.08;;;;;;;;;;5093077;28;20124;-70
2021/05/22 08:22:41;;;;;;;2.17;1.98;;;;;;;;;;5091372;28;20488;-70
2021/05/22 08:25:08;;;;;;;2.90;1.98;;;;;;;;;;5091810;28;20682;-71
2021/05/22 08:27:33;;;;;;;2.55;2.22;;;;;;;;;;5092479;28;20149;-70
2021/05/22 08:29:59;;;;;;;1.95;1.77;;;;;;;;;;5092569;28;20123;-70
2021/05/22 08:32:26;;;;;;;5.10;2.78;;;;;;;;;;5092145;28;20024;-70
2021/05/22 08:34:53;;;;;;;4.10;3.00;;;;;;;;;;5091219;28;20036;-70
2021/05/22 08:37:20;;;;;;;6.40;3.60;;;;;;;;;;5093432;28;20046;-70
2021/05/22 08:39:47;;;;;;;3.83;2.60;;;;;;;;;;5093061;28;20031;-70
2021/05/22 08:42:23;;;;;;;5.47;3.22;;;;;;;;;;5092816;28;20127;-70
2021/05/22 08:44:49;;;;;;;3.10;2.33;;;;;;;;;;5092693;28;20027;-70
2021/05/22 08:47:14;;;;;;;2.53;2.10;;;;;;;;;;5093204;28;20040;-70
2021/05/22 08:49:41;;;;;;;4.68;3.15;;;;;;;;;;5092983;28;20032;-70
2021/05/22 08:52:12;;;;;;;2.63;2.15;;;;;;;;;;5092905;28;20468;-70
2021/05/22 08:54:38;;;;;;;3.03;2.47;;;;;;;;;;5092513;28;20118;-70
2021/05/22 08:57:04;;;;;;;3.70;3.05;;;;;;;;;;5091236;28;20115;-70
2021/05/22 08:59:30;;;;;;;3.53;3.03;;;;;;;;;;5092801;28;20070;-70
2021/05/22 09:01:56;;;;;;;3.65;2.75;;;;;;;;;;5092619;28;20392;-70
2021/05/22 09:04:22;;;;;;;2.53;2.35;;;;;;;;;;5092341;28;20035;-70
2021/05/22 09:07:03;;;;;;;4.25;3.15;;;;;;;;;;5092043;28;20012;-70
2021/05/22 09:09:41;;;;;;;5.38;3.90;;;;;;;;;;5090729;28;20028;-70
2021/05/22 09:12:07;;;;;;;2.72;2.45;;;;;;;;;;5091934;28;20484;-70
2021/05/22 09:14:40;;;;;;;3.25;2.85;;;;;;;;;;5091970;28;20020;-70
2021/05/22 09:17:09;;;;;;;3.00;2.38;;;;;;;;;;5092255;28;20502;-70
2021/05/22 09:19:34;;;;;;;3.80;3.40;;;;;;;;;;5092274;28;20077;-70
2021/05/22 09:22:20;;;;;;;4.72;2.65;;;;;;;;;;5092359;28;20024;-70
2021/05/22 09:25:00;;;;;;;4.22;3.83;;;;;;;;;;5091957;28;20040;-70
2021/05/22 09:27:32;;;;;;;5.93;3.90;;;;;;;;;;5092156;28;20073;-70
2021/05/22 09:30:02;;;;;;;5.82;4.28;;;;;;;;;;5090439;28;20043;-70
2021/05/22 09:32:28;;;;;;;5.32;4.82;;;;;;;;;;5091800;28;20032;-70
2021/05/22 09:34:53;;;;;;;5.50;4.15;;;;;;;;;;5091280;28;20051;-70
2021/05/22 09:37:19;;;;;;;4.72;3.65;;;;;;;;;;5092088;28;20441;-70
2021/05/22 09:39:45;;;;;;;6.63;4.53;;;;;;;;;;5089929;28;20063;-70
2021/05/22 09:42:11;;;;;;;6.03;3.40;;;;;;;;;;5091474;28;20126;-70
2021/05/22 09:44:37;;;;;;;4.35;3.47;;;;;;;;;;5091505;28;20115;-70
2021/05/22 09:47:03;;;;;;;6.75;4.55;;;;;;;;;;5091741;28;20031;-70
2021/05/22 09:49:30;;;;;;;6.78;3.90;;;;;;;;;;5073535;28;20038;-70
2021/05/22 09:52:03;;;;;;;6.55;4.13;;;;;;;;;;5091694;28;20060;-71
2021/05/22 09:54:39;;;;;;;5.15;3.35;;;;;;;;;;5091278;28;20051;-70
2021/05/22 09:57:05;;;;;;;5.97;4.40;;;;;;;;;;5090281;28;20481;-70
2021/05/22 09:59:30;;;;;;;5.63;5.05;;;;;;;;;;5091827;28;20027;-70
2021/05/22 10:01:58;;;;;;;7.00;4.78;;;;;;;;;;5091094;28;20085;-70
2021/05/22 10:04:24;;;;;;;4.97;4.53;;;;;;;;;;5091479;28;20760;-70
2021/05/22 10:06:49;;;;;;;8.52;5.93;;;;;;;;;;5089785;28;20139;-70
2021/05/22 10:09:17;;;;;;;5.93;5.35;;;;;;;;;;5091271;28;20012;-68
2021/05/22 10:12:01;;;;;;;5.35;3.83;;;;;;;;;;5091236;28;20047;-70
2021/05/22 10:14:34;;;;;;;4.63;3.53;;;;;;;;;;5091165;28;20028;-70
2021/05/22 10:17:02;;;;;;;3.53;3.20;;;;;;;;;;5091181;28;20031;-71
2021/05/22 10:19:28;;;;;;;4.05;3.30;;;;;;;;;;5092904;28;20063;-71
2021/05/22 10:21:54;;;;;;;2.65;2.45;;;;;;;;;;5093906;28;20031;-71
2021/05/22 10:24:19;;;;;;;2.80;2.30;;;;;;;;;;5094909;28;20015;-71
2021/05/22 10:26:46;;;;;;;3.00;2.80;;;;;;;;;;5094740;28;20358;-71
2021/05/22 10:29:12;;;;;;;2.72;2.53;;;;;;;;;;5094653;28;20474;-72
2021/05/22 10:31:39;;;;;;;3.40;2.97;;;;;;;;;;5093883;28;20038;-72
2021/05/22 10:34:11;;;;;;;4.00;3.67;;;;;;;;;;5092634;28;20038;-72
2021/05/22 10:36:49;;;;;;;3.08;2.72;;;;;;;;;;5092015;28;20048;-72
2021/05/22 10:39:33;;;;;;;2.58;2.38;;;;;;;;;;5092690;28;20024;-72
2021/05/22 10:41:59;;;;;;;4.05;2.70;;;;;;;;;;5093277;28;20031;-72
2021/05/22 10:44:37;;;;;;;2.72;2.47;;;;;;;;;;5094193;28;20054;-72
2021/05/22 10:47:09;;;;;;;3.45;2.55;;;;;;;;;;5093691;28;20058;-72
2021/05/22 10:49:55;;;;;;;2.60;2.45;;;;;;;;;;5094027;28;20374;-72
2021/05/22 10:52:26;;;;;;;3.03;2.70;;;;;;;;;;5093146;28;20042;-72
2021/05/22 10:55:04;;;;;;;3.60;2.55;;;;;;;;;;5092381;28;20405;-72
2021/05/22 10:57:34;;;;;;;2.25;2.10;;;;;;;;;;5092393;28;20528;-72
2021/05/22 11:00:22;;;;;;;2.40;2.20;;;;;;;;;;5093643;28;20028;-72
2021/05/22 11:02:49;;;;;;;3.53;2.40;;;;;;;;;;5092246;28;20036;-72
2021/05/22 11:07:49;;;;;;;2.47;2.38;;;;;;;;;;5093322;28;20500;-72
2021/05/22 11:10:33;;;;;;;3.47;2.75;;;;;;;;;;5093330;28;20028;-72
2021/05/22 11:12:59;;;;;;;5.70;3.38;;;;;;;;;;5093336;28;20024;-72
2021/05/22 11:15:45;;;;;;;4.22;3.83;;;;;;;;;;5093373;28;20377;-72
2021/05/22 11:18:12;;;;;;;5.22;4.72;;;;;;;;;;5092189;28;20028;-72
2021/05/22 11:20:38;;;;;;;6.20;4.88;;;;;;;;;;5093259;28;20024;-72
2021/05/22 11:23:04;;;;;;;5.30;4.18;;;;;;;;;;5091959;28;20078;-72
2021/05/22 11:25:45;;;;;;;3.88;3.30;;;;;;;;;;5092045;28;20047;-72
2021/05/22 11:28:17;;;;;;;3.08;2.80;;;;;;;;;;5093022;28;20363;-72
2021/05/22 11:30:44;;;;;;;3.22;2.53;;;;;;;;;;5091875;28;20032;-72
2021/05/22 11:33:10;;;;;;;2.17;1.90;;;;;;;;;;5092934;28;20016;-72
2021/05/22 11:35:37;;;;;;;4.25;2.47;;;;;;;;;;5095939;28;20074;-72
2021/05/22 11:40:38;;;;;;;2.20;2.05;;;;;;;;;;5097244;28;20077;-72
2021/05/22 11:43:12;;;;;;;1.95;1.70;;;;;;;;;;5096049;28;20016;-72
2021/05/22 11:45:38;;;;;;;2.40;2.20;;;;;;;;;;5097217;28;20398;-72
2021/05/22 11:48:24;;;;;;;2.40;2.20;;;;;;;;;;5097164;28;20103;-72
2021/05/22 11:50:50;;;;;;;2.40;2.20;;;;;;;;;;5096874;28;20044;-72
2021/05/22 11:53:17;;;;;;;2.30;2.10;;;;;;;;;;5095739;28;20172;-72
2021/05/22 11:55:42;;;;;;;2.40;2.20;;;;;;;;;;5097120;28;20085;-72
2021/05/22 11:58:12;;;;;;;2.65;2.30;;;;;;;;;;5095785;28;20020;-72
2021/05/22 12:00:38;;;;;;;2.70;2.50;;;;;;;;;;5095698;28;20031;-72
2021/05/22 12:03:06;;;;;;;3.38;2.42;;;;;;;;;;5095726;28;20077;-72
2021/05/22 12:05:38;;;;;;;2.80;2.50;;;;;;;;;;5096887;28;20026;-72
2021/05/22 12:08:04;;;;;;;2.60;2.40;;;;;;;;;;5096816;28;20024;-72
2021/05/22 12:10:30;;;;;;;2.78;2.53;;;;;;;;;;5095612;28;20017;-72
2021/05/22 12:13:02;;;;;;;3.15;2.67;;;;;;;;;;5095577;28;20107;-72
2021/05/22 12:15:28;;;;;;;3.45;2.72;;;;;;;;;;5096756;28;20032;-72
2021/05/22 12:17:59;;;;;;;4.43;2.92;;;;;;;;;;5096590;28;20024;-72
2021/05/22 12:20:26;;;;;;;;;;;;;;;;;;5096909;28;20032;-72
2021/05/22 12:22:51;;;;;;;3.03;2.65;;;;;;;;;;5096428;28;19908;-72
2021/05/22 12:25:17;;;;;;;4.40;2.85;;;;;;;;;;5095186;28;20482;-72
2021/05/22 12:27:42;;;;;;;3.55;3.25;;;;;;;;;;5096391;28;20073;-72
2021/05/22 12:30:09;;;;;;;3.58;3.25;;;;;;;;;;5096292;28;20052;-72
2021/05/22 12:32:35;;;;;;;3.65;3.35;;;;;;;;;;5094875;28;20031;-72
2021/05/22 12:35:02;;;;;;;4.05;3.20;;;;;;;;;;5095766;28;20447;-72
2021/05/22 12:37:29;;;;;;;4.82;3.70;;;;;;;;;;5095225;28;20034;-72
2021/05/22 12:40:03;;;;;;;4.00;3.38;;;;;;;;;;5096129;28;20095;-72
2021/05/22 12:42:33;;;;;;;3.78;3.45;;;;;;;;;;5094829;28;20050;-72
2021/05/22 12:45:09;;;;;;;4.05;3.13;;;;;;;;;;5095509;28;20541;-72
2021/05/22 12:47:40;;;;;;;3.22;2.92;;;;;;;;;;5095046;28;20062;-72
2021/05/22 12:50:07;;;;;;;3.33;2.55;;;;;;;;;;5096079;28;20028;-72
2021/05/22 12:52:47;;;;;;;2.40;2.20;;;;;;;;;;5094678;28;20119;-72
2021/05/22 12:55:23;;;;;;;3.03;2.72;;;;;;;;;;5095944;28;20031;-72
2021/05/22 12:58:12;;;;;;;2.40;2.20;;;;;;;;;;5095999;28;20088;-72
2021/05/22 13:00:38;;;;;;;2.65;2.45;;;;;;;;;;5094451;28;20537;-72
2021/05/22 13:03:05;;;;;;;4.03;2.92;;;;;;;;;;5095714;28;20012;-72
2021/05/22 13:05:31;;;;;;;3.38;2.63;;;;;;;;;;5095691;28;20039;-72
2021/05/22 13:07:57;;;;;;;3.00;2.70;;;;;;;;;;5095703;28;20024;-72
2021/05/22 13:10:23;;;;;;;2.63;2.28;;;;;;;;;;5094407;28;20035;-72
2021/05/22 13:13:11;;;;;;;2.38;2.17;;;;;;;;;;5095484;28;20012;-72
2021/05/22 13:15:36;;;;;;;2.83;2.53;;;;;;;;;;5095354;28;20020;-72
2021/05/22 13:18:06;;;;;;;2.45;2.25;;;;;;;;;;5095494;28;20065;-72
2021/05/22 13:20:52;;;;;;;2.63;2.33;;;;;;;;;;5095294;28;20081;-72
2021/05/22 13:23:20;;;;;;;3.13;2.42;;;;;;;;;;5095079;28;20040;-72
2021/05/22 13:25:49;;;;;;;2.53;2.20;;;;;;;;;;5095202;28;20091;-72
2021/05/22 13:28:35;;;;;;;2.92;2.38;;;;;;;;;;5095337;28;20032;-72
2021/05/22 13:31:10;;;;;;;3.20;2.85;;;;;;;;;;5095145;28;20055;-72
2021/05/22 13:33:37;;;;;;;4.80;2.35;;;;;;;;;;5095029;28;20035;-72
2021/05/22 13:36:03;;;;;;;2.38;2.05;;;;;;;;;;5094674;28;20097;-72
2021/05/22 13:38:28;;;;;;;2.78;2.58;;;;;;;;;;5093905;28;20082;-72
2021/05/22 13:40:54;;;;;;;3.20;2.75;;;;;;;;;;5093763;28;20028;-72
2021/05/22 13:43:19;;;;;;;4.03;2.53;;;;;;;;;;5093663;28;20024;-72
2021/05/22 13:45:46;;;;;;;3.10;2.67;;;;;;;;;;5094918;28;20473;-72
2021/05/22 13:48:12;;;;;;;2.88;2.53;;;;;;;;;;5094849;28;20240;-72
2021/05/22 13:50:38;;;;;;;2.92;2.63;;;;;;;;;;5094768;28;20458;-72
2021/05/22 13:53:03;;;;;;;2.80;2.50;;;;;;;;;;5094719;28;20089;-72
2021/05/22 13:55:29;;;;;;;2.70;2.50;;;;;;;;;;5093504;28;20020;-72
2021/05/22 13:57:54;;;;;;;4.47;2.70;;;;;;;;;;5093599;28;20032;-72
2021/05/22 14:00:20;;;;;;;3.17;2.60;;;;;;;;;;5094606;28;20020;-72
2021/05/22 14:02:46;;;;;;;4.30;2.33;;;;;;;;;;5094590;28;20081;-72
2021/05/22 14:05:11;;;;;;;2.15;2.00;;;;;;;;;;5094624;28;20359;-72
2021/05/22 14:07:37;;;;;;;2.33;2.13;;;;;;;;;;5094362;28;20020;-72
2021/05/22 14:10:03;;;;;;;2.40;2.20;;;;;;;;;;5093928;28;20027;-72
2021/05/22 14:12:29;;;;;;;2.22;2.03;;;;;;;;;;5093068;28;20040;-72
2021/05/22 14:14:54;;;;;;;4.88;2.55;;;;;;;;;;5093185;28;20020;-72
2021/05/22 14:17:20;;;;;;;2.53;2.30;;;;;;;;;;5094332;28;20478;-72
2021/05/22 14:19:45;;;;;;;2.92;2.08;;;;;;;;;;5094220;28;20027;-72
2021/05/22 14:22:11;;;;;;;4.40;2.47;;;;;;;;;;5094064;28;20394;-72
2021/05/22 14:24:36;;;;;;;2.63;2.13;;;;;;;;;;5094172;28;20015;-72
2021/05/22 14:27:02;;;;;;;3.00;2.38;;;;;;;;;;5092766;28;20458;-72
2021/05/22 14:29:28;;;;;;;2.67;2.22;;;;;;;;;;5094034;28;20420;-72
2021/05/22 14:31:53;;;;;;;2.85;2.50;;;;;;;;;;5092851;28;20042;-72
2021/05/22 14:34:19;;;;;;;3.97;2.15;;;;;;;;;;5093967;28;20055;-72
2021/05/22 14:36:45;;;;;;;2.47;2.20;;;;;;;;;;5093748;28;20043;-72
2021/05/22 14:39:10;;;;;;;3.78;1.92;;;;;;;;;;5093903;28;20050;-72
2021/05/22 14:41:36;;;;;;;2.15;1.95;;;;;;;;;;5093779;28;20036;-72
2021/05/22 14:44:01;;;;;;;2.58;1.88;;;;;;;;;;5093955;28;20054;-73
2021/05/22 14:46:27;;;;;;;1.95;1.77;;;;;;;;;;5093797;28;20024;-72
2021/05/22 14:48:53;;;;;;;2.17;1.98;;;;;;;;;;5093767;28;20032;-72
2021/05/22 14:51:19;;;;;;;3.55;2.08;;;;;;;;;;5093758;28;20035;-72
2021/05/22 14:53:45;;;;;;;2.63;2.28;;;;;;;;;;5093474;28;20016;-72